Date,TemperatureHighF,TemperatureAvgF,TemperatureLowF,DewpointHighF,DewpointAvgF,DewpointLowF,HumidityHigh,HumidityAvg,HumidityLow,PressureMaxIn,PressureMinIn,WindSpeedMaxMPH,WindSpeedAvgMPH,GustSpeedMaxMPH,PrecipitationSumIn
2012-12-1,60.5,51.3,40.4,34.6,31.1,26.8,68,47,35,29.78,29.64,21,3,21,0.00
2012-12-2,66.3,58.2,40.1,31.4,27.1,18.4,61,32,16,29.78,29.27,30,7,32,0.00
2012-12-3,61.4,46.0,40.7,38.2,19.8,11.6,67,37,21,30.11,29.32,32,7,32,0.00
2012-12-4,53.7,44.1,33.2,22.2,16.8,13.4,47,34,21,30.23,30.02,17,4,17,0.00
2012-12-5,64.5,51.5,40.0,40.0,32.2,20.5,69,48,30,30.02,29.64,20,3,20,0.00
2012-12-6,40.4,36.4,28.8,28.5,18.3,8.1,94,51,29,30.04,29.90,17,2,18,0.00
2012-12-7,34.2,28.0,21.1,30.0,25.1,16.0,95,89,70,30.00,29.89,10,1,10,0.02
2012-12-8,39.5,26.7,9.3,24.1,18.1,-0.1,86,70,49,30.16,29.70,30,6,30,0.04
2012-12-9,16.2,7.7,1.9,2.7,-0.6,-3.2,83,69,51,30.52,30.16,25,6,25,0.00
2012-12-10,36.3,25.1,5.8,22.8,15.3,0.4,83,66,47,30.21,29.99,27,5,27,0.00
2012-12-11,41.9,35.3,26.0,20.1,16.5,12.3,78,47,34,30.01,29.65,21,6,21,0.00
2012-12-12,54.6,42.5,32.0,26.4,22.3,19.3,75,46,26,29.80,29.59,17,3,20,0.00
2012-12-13,46.0,33.8,17.1,29.2,24.5,14.7,94,71,43,30.01,29.80,12,1,15,0.00
2012-12-14,50.1,35.6,26.3,30.4,22.4,19.0,83,60,36,29.90,29.63,9,1,9,0.00
2012-12-15,39.7,31.5,24.1,23.2,16.9,7.0,77,56,28,29.84,29.66,12,2,12,0.00
2012-12-16,35.9,28.2,22.9,22.6,18.1,14.3,87,66,53,29.82,29.68,8,1,8,0.00
2012-12-17,40.6,31.1,21.3,30.6,19.0,11.2,81,61,43,29.81,29.48,16,1,16,0.00
2012-12-18,40.6,33.6,21.4,29.5,11.4,1.8,75,41,21,29.88,29.54,24,4,24,0.00
2012-12-19,29.8,25.7,20.0,12.6,7.3,2.6,53,45,37,30.22,29.88,26,4,26,0.00
2012-12-20,46.4,30.7,18.8,9.4,4.9,-2.2,44,34,20,30.24,30.15,17,2,17,0.00
2012-12-21,56.5,39.3,29.6,17.4,9.8,3.0,51,31,14,30.15,29.96,15,2,15,0.00
2012-12-22,42.2,27.1,15.7,17.5,11.0,2.8,87,55,20,30.10,29.95,12,1,12,0.00
2012-12-23,23.4,13.7,8.8,16.4,10.4,5.8,91,86,71,30.23,29.92,12,1,12,0.00
2012-12-24,11.5,7.3,2.3,9.0,4.5,-0.9,90,88,86,30.55,30.20,8,2,8,0.00
2012-12-25,9.9,2.9,-1.6,5.0,-0.6,-5.3,89,85,78,30.67,30.39,7,1,7,0.00
2012-12-26,15.0,6.8,-0.4,9.6,3.7,-3.6,90,87,78,30.38,30.07,8,1,8,0.00
2012-12-27,13.4,7.7,-0.5,9.8,4.3,-3.7,90,86,80,30.25,30.05,13,1,13,0.00
2012-12-28,30.7,18.4,-0.1,20.3,11.1,-3.2,91,74,52,30.26,30.20,10,1,10,0.00
2012-12-29,39.9,28.0,18.2,20.2,14.7,9.5,74,57,41,30.23,30.02,15,2,15,0.00
2012-12-30,35.2,28.1,13.8,19.8,14.8,5.5,83,58,39,30.22,29.98,19,5,19,0.00
2012-12-31,31.7,18.6,9.1,18.9,11.5,4.3,84,74,50,30.26,30.17,7,1,7,0.00